Time;durP1;ratioP1;P1;durP2;ratioP2;P2;SDS_P1;SDS_P2;PMS_P1;PMS_P2;Temp;Humidity;BMP_temperature;BMP_pressure;BME280_temperature;BME280_humidity;BME280_pressure;Samples;Min_cycle;Max_cycle;Signal;HPM_P1;HPM_P2
2023/03/17 00:00:38;;;;;;;6.30;3.30;;;6.00;92.30;;;;;;5049309;28;20035;-45
2023/03/17 00:03:05;;;;;;;5.28;3.08;;;5.90;92.60;;;;;;5042898;28;20021;-46
2023/03/17 00:05:34;;;;;;;4.90;3.08;;;5.90;92.40;;;;;;5050332;28;20032;-48
2023/03/17 00:08:09;;;;;;;4.72;3.22;;;6.00;92.70;;;;;;5050562;28;20017;-45
2023/03/17 00:10:36;;;;;;;8.02;3.40;;;6.00;92.40;;;;;;5048398;28;20071;-45
2023/03/17 00:13:02;;;;;;;5.53;3.33;;;6.00;92.50;;;;;;5054063;28;20039;-46
2023/03/17 00:15:29;;;;;;;5.85;4.03;;;6.00;92.60;;;;;;5053037;28;20383;-47
2023/03/17 00:17:55;;;;;;;7.20;3.58;;;6.00;92.60;;;;;;5050088;28;20029;-46
2023/03/17 00:20:30;;;;;;;5.40;2.95;;;6.00;92.80;;;;;;5049608;28;20025;-47
2023/03/17 00:23:03;;;;;;;6.03;3.40;;;6.00;92.70;;;;;;5049593;28;20505;-45
2023/03/17 00:25:31;;;;;;;4.55;2.97;;;6.00;92.60;;;;;;5048532;28;20032;-46
2023/03/17 00:27:57;;;;;;;7.32;3.50;;;5.90;92.70;;;;;;5049813;28;20036;-45
2023/03/17 00:30:24;;;;;;;6.38;3.30;;;5.90;93.00;;;;;;5056606;28;20048;-45
2023/03/17 00:32:51;;;;;;;6.82;4.20;;;5.90;93.10;;;;;;5051231;28;20509;-46
2023/03/17 00:35:23;;;;;;;5.95;3.22;;;5.90;93.00;;;;;;5048081;28;20538;-45
2023/03/17 00:37:51;;;;;;;6.22;3.95;;;5.90;93.20;;;;;;5049546;28;20528;-45
2023/03/17 00:40:22;;;;;;;7.28;3.00;;;6.00;93.30;;;;;;5049623;28;20024;-46
2023/03/17 00:42:52;;;;;;;7.72;3.40;;;5.90;93.60;;;;;;5051561;28;20493;-46
2023/03/17 00:45:22;;;;;;;6.03;3.35;;;5.90;93.70;;;;;;5055872;28;20033;-45
2023/03/17 00:47:49;;;;;;;4.47;3.05;;;5.90;93.80;;;;;;5049852;28;20033;-46
2023/03/17 00:50:21;;;;;;;5.93;3.20;;;5.90;93.80;;;;;;5049766;28;20033;-45
2023/03/17 00:52:48;;;;;;;6.75;3.22;;;5.80;93.80;;;;;;5049582;28;20031;-45
2023/03/17 00:55:14;;;;;;;8.13;3.63;;;5.80;94.00;;;;;;5056602;28;20028;-45
2023/03/17 00:57:41;;;;;;;6.28;3.55;;;5.80;94.30;;;;;;5049562;28;20378;-45
2023/03/17 01:00:19;;;;;;;6.68;3.67;;;5.80;94.40;;;;;;5048385;28;20017;-45
2023/03/17 01:02:46;;;;;;;5.60;3.38;;;5.80;94.50;;;;;;5049412;28;20067;-46
2023/03/17 01:05:13;;;;;;;5.82;4.15;;;5.80;94.60;;;;;;5047544;28;20082;-45
2023/03/17 01:07:39;;;;;;;4.63;3.15;;;5.80;94.70;;;;;;5049330;28;20028;-45
2023/03/17 01:10:17;;;;;;;6.30;3.88;;;5.80;94.80;;;;;;5048986;28;20490;-45
2023/03/17 01:12:44;;;;;;;6.32;3.67;;;5.80;94.90;;;;;;5057455;28;20050;-45
2023/03/17 01:15:11;;;;;;;6.80;3.08;;;5.80;95.10;;;;;;5048739;28;20029;-45
2023/03/17 01:17:38;;;;;;;5.80;3.92;;;5.80;95.10;;;;;;5049241;28;20368;-45
2023/03/17 01:20:05;;;;;;;5.72;3.60;;;5.80;95.10;;;;;;5047821;28;20024;-45
2023/03/17 01:22:31;;;;;;;6.07;3.67;;;5.80;94.80;;;;;;5057537;28;20226;-45
2023/03/17 01:24:56;;;;;;;5.35;3.47;;;5.80;95.00;;;;;;5055750;28;20390;-45
2023/03/17 01:27:23;;;;;;;5.75;3.45;;;5.80;95.30;;;;;;5049448;28;20659;-46
2023/03/17 01:29:52;;;;;;;5.72;3.75;;;5.70;95.40;;;;;;5057539;28;20020;-46
2023/03/17 01:32:18;;;;;;;6.68;3.75;;;5.80;95.50;;;;;;5054561;28;20021;-45
2023/03/17 01:34:44;;;;;;;5.55;3.25;;;5.70;95.50;;;;;;5049255;28;20040;-45
2023/03/17 01:37:10;;;;;;;5.97;3.67;;;5.70;95.70;;;;;;5049182;28;20154;-45
2023/03/17 01:39:35;;;;;;;6.90;4.03;;;5.70;95.60;;;;;;5056892;28;20504;-45
2023/03/17 01:42:02;;;;;;;7.30;4.00;;;5.70;95.70;;;;;;5050715;28;20448;-45
2023/03/17 01:44:28;;;;;;;7.63;3.53;;;5.70;95.80;;;;;;5053527;28;20662;-45
2023/03/17 01:46:54;;;;;;;8.38;3.67;;;5.70;95.90;;;;;;5048532;28;20028;-45
2023/03/17 01:49:37;;;;;;;8.60;4.10;;;5.60;96.00;;;;;;5054658;28;20017;-48
2023/03/17 01:52:14;;;;;;;6.93;3.35;;;5.60;96.10;;;;;;5048777;28;20010;-46
2023/03/17 01:55:06;;;;;;;6.13;4.10;;;5.60;96.30;;;;;;5056487;28;20032;-45
2023/03/17 01:57:43;;;;;;;7.13;4.38;;;5.60;96.40;;;;;;5049031;28;20074;-45
2023/03/17 02:00:13;;;;;;;7.63;4.22;;;5.60;96.30;;;;;;5041130;28;20124;-45
2023/03/17 02:02:45;;;;;;;4.85;3.28;;;5.60;96.70;;;;;;5048586;28;20524;-45
2023/03/17 02:05:13;;;;;;;7.13;3.78;;;5.60;97.00;;;;;;5048089;28;20033;-45
2023/03/17 02:07:40;;;;;;;6.55;3.63;;;5.60;96.80;;;;;;5048595;28;20378;-45
2023/03/17 02:10:07;;;;;;;7.85;4.20;;;5.60;96.90;;;;;;5057252;28;20075;-45
2023/03/17 02:12:34;;;;;;;6.15;3.63;;;5.60;97.10;;;;;;5048913;28;20021;-45
2023/03/17 02:15:00;;;;;;;5.40;3.78;;;5.60;97.10;;;;;;5063437;28;20553;-45
2023/03/17 02:17:27;;;;;;;6.55;3.90;;;5.60;97.60;;;;;;5048659;28;20112;-45
2023/03/17 02:19:54;;;;;;;7.47;4.13;;;5.60;97.30;;;;;;5056870;28;20493;-45
2023/03/17 02:22:19;;;;;;;7.80;3.70;;;5.60;97.20;;;;;;5048509;28;20025;-45
2023/03/17 02:24:51;;;;;;;7.72;3.80;;;5.60;97.20;;;;;;5048853;28;20474;-46
2023/03/17 02:27:28;;;;;;;6.38;3.60;;;5.70;97.20;;;;;;5058950;28;20589;-49
2023/03/17 02:29:54;;;;;;;7.50;4.78;;;5.60;97.20;;;;;;5058307;28;20103;-46
2023/03/17 02:32:19;;;;;;;7.47;4.18;;;5.70;97.80;;;;;;5048461;28;20490;-45
2023/03/17 02:34:47;;;;;;;5.85;4.13;;;5.70;97.40;;;;;;5048141;28;20021;-47
2023/03/17 02:37:14;;;;;;;7.35;3.72;;;5.70;97.50;;;;;;5056482;28;20267;-46
2023/03/17 02:39:39;;;;;;;5.72;4.18;;;5.70;97.40;;;;;;5056670;28;20025;-46
2023/03/17 02:42:06;;;;;;;5.75;3.83;;;5.60;97.40;;;;;;5056259;28;20100;-46
2023/03/17 02:44:31;;;;;;;7.55;4.85;;;5.70;97.50;;;;;;5056268;28;20083;-46
2023/03/17 02:46:58;;;;;;;7.68;3.92;;;5.70;97.50;;;;;;5049981;28;20033;-46
2023/03/17 02:49:24;;;;;;;5.55;3.95;;;5.70;97.70;;;;;;5051911;28;20112;-45
2023/03/17 02:51:50;;;;;;;9.55;3.85;;;5.70;97.80;;;;;;5051480;28;20028;-47
2023/03/17 02:54:16;;;;;;;7.50;4.65;;;5.70;97.90;;;;;;5049858;28;20333;-46
2023/03/17 02:56:42;;;;;;;8.02;4.05;;;5.70;98.10;;;;;;5051685;28;20031;-46
2023/03/17 02:59:08;;;;;;;5.03;3.67;;;5.70;98.40;;;;;;5055399;28;20032;-46
2023/03/17 03:01:34;;;;;;;6.72;4.13;;;5.60;98.20;;;;;;5056686;28;20025;-46
2023/03/17 03:04:00;;;;;;;8.10;4.85;;;5.60;98.30;;;;;;5060301;28;20073;-46
2023/03/17 03:06:25;;;;;;;8.35;4.70;;;5.60;98.20;;;;;;5057475;28;20470;-46
2023/03/17 03:08:52;;;;;;;6.22;3.83;;;5.60;98.10;;;;;;5053948;28;20289;-45
2023/03/17 03:11:18;;;;;;;5.00;4.00;;;5.70;98.20;;;;;;5054851;28;20029;-45
2023/03/17 03:13:44;;;;;;;5.53;4.00;;;5.70;98.30;;;;;;5055085;28;20013;-45
2023/03/17 03:16:09;;;;;;;8.27;5.05;;;5.70;98.30;;;;;;5051097;28;20386;-45
2023/03/17 03:18:36;;;;;;;8.10;4.20;;;5.70;98.10;;;;;;5050181;28;20032;-47
2023/03/17 03:21:03;;;;;;;9.27;5.30;;;5.70;98.10;;;;;;5051083;28;20358;-45
2023/03/17 03:23:29;;;;;;;10.93;4.68;;;5.70;97.90;;;;;;5049709;28;20033;-46
2023/03/17 03:25:55;;;;;;;6.63;4.43;;;5.70;98.00;;;;;;5049235;28;20067;-46
2023/03/17 03:28:21;;;;;;;6.35;4.20;;;5.70;97.90;;;;;;5050977;28;20017;-45
2023/03/17 03:30:46;;;;;;;5.97;3.60;;;5.70;98.00;;;;;;5051629;28;20039;-46
2023/03/17 03:33:13;;;;;;;6.47;4.10;;;5.70;98.20;;;;;;5051111;28;20021;-45
2023/03/17 03:35:39;;;;;;;7.30;4.35;;;5.70;98.00;;;;;;5058747;28;20096;-46
2023/03/17 03:38:06;;;;;;;8.73;4.82;;;5.70;98.30;;;;;;5054355;28;20108;-47
2023/03/17 03:40:32;;;;;;;8.43;4.15;;;5.70;98.20;;;;;;5055087;28;20024;-46
2023/03/17 03:42:58;;;;;;;7.15;4.50;;;5.70;98.10;;;;;;5050859;28;20021;-48
2023/03/17 03:45:23;;;;;;;7.43;4.45;;;5.70;98.00;;;;;;5051200;28;20104;-45
2023/03/17 03:47:49;;;;;;;9.55;4.50;;;5.70;98.00;;;;;;5050962;28;20066;-49
2023/03/17 03:50:15;;;;;;;10.15;4.70;;;5.60;98.20;;;;;;5051300;28;20045;-45
2023/03/17 03:52:40;;;;;;;9.43;4.30;;;5.60;98.10;;;;;;5051206;28;20019;-45
2023/03/17 03:55:06;;;;;;;10.50;4.38;;;5.60;98.20;;;;;;5050674;28;20382;-46
2023/03/17 03:57:32;;;;;;;10.07;4.65;;;5.60;98.20;;;;;;5049914;28;20020;-46
2023/03/17 03:59:58;;;;;;;7.00;4.25;;;5.60;98.40;;;;;;5052067;28;20017;-45
2023/03/17 04:02:23;;;;;;;6.20;4.15;;;5.70;98.30;;;;;;5056090;28;20028;-46
2023/03/17 04:04:48;;;;;;;7.90;4.63;;;5.60;98.70;;;;;;5061644;28;20074;-46
2023/03/17 04:07:14;;;;;;;6.93;3.72;;;5.60;99.00;;;;;;5050590;28;20433;-45
2023/03/17 04:09:40;;;;;;;8.57;4.97;;;5.60;99.10;;;;;;5058249;28;20363;-46
2023/03/17 04:12:09;;;;;;;6.85;4.18;;;5.50;99.40;;;;;;5050772;28;20075;-47
2023/03/17 04:14:35;;;;;;;8.63;4.93;;;5.50;99.80;;;;;;5056670;28;20074;-45
2023/03/17 04:17:01;;;;;;;9.98;4.32;;;5.50;99.90;;;;;;5048370;28;20025;-48
2023/03/17 04:19:26;;;;;;;8.15;4.03;;;5.40;99.90;;;;;;5041962;28;20013;-48
2023/03/17 04:21:52;;;;;;;9.52;4.82;;;5.40;99.90;;;;;;5042096;28;20021;-45
2023/03/17 04:24:18;;;;;;;8.25;4.80;;;5.40;99.90;;;;;;5042875;28;20219;-44
2023/03/17 04:26:43;;;;;;;9.13;5.47;;;5.30;99.90;;;;;;5038937;28;20025;-44
2023/03/17 04:29:14;;;;;;;9.75;4.70;;;5.20;99.90;;;;;;5047070;28;20032;-45
2023/03/17 04:31:40;;;;;;;8.60;4.85;;;5.20;99.90;;;;;;5044680;28;20020;-44
2023/03/17 04:34:05;;;;;;;7.75;4.82;;;5.10;99.90;;;;;;5046801;28;20021;-45
2023/03/17 04:36:31;;;;;;;7.32;4.72;;;5.10;99.90;;;;;;5041233;28;20561;-44
2023/03/17 04:38:57;;;;;;;7.47;4.50;;;5.00;99.90;;;;;;5074837;28;20021;-45
2023/03/17 04:41:23;;;;;;;8.00;4.82;;;5.00;99.90;;;;;;5042670;28;20466;-45
2023/03/17 04:43:48;;;;;;;7.90;4.68;;;4.90;99.90;;;;;;5040898;28;20036;-45
2023/03/17 04:46:14;;;;;;;9.00;4.85;;;4.90;99.90;;;;;;5040692;28;20032;-48
2023/03/17 04:48:40;;;;;;;9.63;4.88;;;4.90;99.90;;;;;;5085380;28;20070;-46
2023/03/17 04:51:05;;;;;;;8.20;4.78;;;4.80;99.90;;;;;;5050786;28;20024;-45
2023/03/17 04:53:31;;;;;;;8.95;4.93;;;4.80;99.90;;;;;;5049463;28;20025;-46
2023/03/17 04:55:57;;;;;;;6.97;4.88;;;4.80;99.90;;;;;;5050134;28;20364;-45
2023/03/17 04:58:23;;;;;;;10.30;4.90;;;4.70;99.90;;;;;;5055608;28;20733;-45
2023/03/17 05:00:49;;;;;;;8.75;4.88;;;4.70;99.90;;;;;;5049101;28;20055;-46
2023/03/17 05:03:16;;;;;;;10.88;4.95;;;4.60;99.90;;;;;;5049532;28;20348;-44
2023/03/17 05:05:41;;;;;;;8.88;5.22;;;4.60;99.90;;;;;;5057058;28;20051;-44
2023/03/17 05:08:07;;;;;;;7.22;4.53;;;4.50;99.90;;;;;;5048044;28;20025;-44
2023/03/17 05:10:32;;;;;;;12.88;4.70;;;4.60;99.90;;;;;;5048910;28;20013;-44
2023/03/17 05:12:58;;;;;;;6.13;4.82;;;4.50;99.90;;;;;;5049089;28;20017;-45
2023/03/17 05:15:23;;;;;;;11.60;5.38;;;4.50;99.90;;;;;;5048780;28;20013;-44
2023/03/17 05:17:49;;;;;;;9.18;5.78;;;4.50;99.90;;;;;;5057992;28;20024;-44
2023/03/17 05:20:15;;;;;;;9.57;5.40;;;4.40;99.90;;;;;;5057700;28;20021;-44
2023/03/17 05:22:40;;;;;;;10.43;5.03;;;4.30;99.90;;;;;;5049361;28;20017;-44
2023/03/17 05:25:06;;;;;;;10.65;5.63;;;4.30;99.90;;;;;;5048625;28;20394;-44
2023/03/17 05:27:32;;;;;;;7.38;4.30;;;4.20;99.90;;;;;;5048775;28;20025;-44
2023/03/17 05:29:58;;;;;;;8.73;5.60;;;4.20;99.90;;;;;;5053405;28;20044;-44
2023/03/17 05:32:24;;;;;;;6.38;4.53;;;4.10;99.90;;;;;;5048684;28;20020;-45
2023/03/17 05:34:50;;;;;;;8.02;4.85;;;4.10;99.90;;;;;;5048456;28;20104;-44
2023/03/17 05:37:16;;;;;;;8.25;5.03;;;4.10;99.90;;;;;;5030987;28;20505;-45
2023/03/17 05:39:42;;;;;;;8.55;5.47;;;4.10;99.90;;;;;;5055904;28;20028;-45
2023/03/17 05:42:08;;;;;;;7.25;4.85;;;4.10;99.90;;;;;;5046902;28;20048;-46
2023/03/17 05:44:34;;;;;;;9.88;5.00;;;4.10;99.90;;;;;;5048364;28;20103;-44
2023/03/17 05:46:59;;;;;;;7.80;4.75;;;4.00;99.90;;;;;;5046888;28;20476;-44
2023/03/17 05:49:26;;;;;;;11.40;5.50;;;4.00;99.90;;;;;;5047679;28;20033;-44
2023/03/17 05:51:51;;;;;;;10.20;5.57;;;4.10;99.90;;;;;;5042561;28;20017;-45
2023/03/17 05:54:17;;;;;;;8.40;5.03;;;4.00;99.90;;;;;;5044838;28;20020;-47
2023/03/17 05:56:43;;;;;;;9.38;5.18;;;4.00;99.90;;;;;;5043008;28;20334;-47
2023/03/17 05:59:09;;;;;;;9.48;5.13;;;4.00;99.90;;;;;;5043162;28;20087;-44
2023/03/17 06:01:35;;;;;;;11.75;5.50;;;4.10;99.90;;;;;;5048453;28;20017;-44
2023/03/17 06:04:01;;;;;;;7.15;4.88;;;4.00;99.90;;;;;;5048503;28;20025;-48
2023/03/17 06:06:27;;;;;;;9.35;5.72;;;4.10;99.90;;;;;;5043313;28;20025;-46
2023/03/17 06:08:53;;;;;;;10.82;5.50;;;4.10;99.90;;;;;;5046258;28;20021;-46
2023/03/17 06:11:20;;;;;;;8.32;5.22;;;4.10;99.90;;;;;;5042903;28;20052;-46
2023/03/17 06:13:46;;;;;;;7.47;5.18;;;4.20;99.90;;;;;;5048632;28;20100;-46
2023/03/17 06:16:12;;;;;;;5.90;4.65;;;4.30;99.90;;;;;;5055761;28;21239;-45
2023/03/17 06:18:38;;;;;;;7.78;4.97;;;4.30;99.90;;;;;;5049072;28;20060;-45
2023/03/17 06:21:03;;;;;;;10.55;5.45;;;4.40;99.90;;;;;;5046927;28;20064;-45
2023/03/17 06:23:29;;;;;;;9.25;4.80;;;4.50;99.90;;;;;;5048611;28;20039;-45
2023/03/17 06:25:54;;;;;;;11.43;5.88;;;4.50;99.90;;;;;;5051832;28;20021;-47
2023/03/17 06:28:20;;;;;;;8.93;5.05;;;4.50;99.90;;;;;;5060540;28;20028;-47
2023/03/17 06:30:45;;;;;;;7.03;4.90;;;4.60;99.90;;;;;;5050047;28;20021;-46
2023/03/17 06:33:11;;;;;;;9.82;5.32;;;4.60;99.90;;;;;;5050508;28;20025;-46
2023/03/17 06:35:37;;;;;;;7.97;4.90;;;4.70;99.90;;;;;;5056347;28;20017;-47
2023/03/17 06:38:03;;;;;;;11.00;5.35;;;4.70;99.90;;;;;;5054017;28;20027;-45
2023/03/17 06:40:30;;;;;;;10.45;5.43;;;4.80;99.90;;;;;;5051929;28;20024;-45
2023/03/17 06:42:56;;;;;;;8.60;5.22;;;4.90;99.90;;;;;;5052060;28;20241;-47
2023/03/17 06:45:22;;;;;;;8.02;5.53;;;4.90;99.90;;;;;;5051267;28;20025;-46
2023/03/17 06:47:47;;;;;;;12.00;5.85;;;5.00;99.90;;;;;;5051484;28;20029;-45
2023/03/17 06:50:13;;;;;;;13.30;6.03;;;5.00;99.90;;;;;;5058790;28;20024;-45
2023/03/17 06:52:39;;;;;;;7.38;4.72;;;5.10;99.90;;;;;;5057844;28;20025;-46
2023/03/17 06:55:06;;;;;;;9.27;5.38;;;5.10;99.90;;;;;;5052841;28;20028;-46
2023/03/17 06:57:31;;;;;;;8.50;5.57;;;5.20;99.90;;;;;;5051759;28;20020;-45
2023/03/17 06:59:57;;;;;;;8.55;5.43;;;5.30;99.90;;;;;;5055391;28;20462;-46
2023/03/17 07:02:23;;;;;;;10.73;5.22;;;5.40;99.90;;;;;;5046160;28;20120;-46
2023/03/17 07:04:49;;;;;;;9.90;5.95;;;5.40;99.90;;;;;;5043816;28;20021;-44
2023/03/17 07:07:15;;;;;;;9.57;5.38;;;5.50;99.90;;;;;;5050002;28;20040;-45
2023/03/17 07:09:40;;;;;;;10.13;5.43;;;5.50;99.90;;;;;;5047486;28;20025;-45
2023/03/17 07:12:06;;;;;;;6.85;4.95;;;5.60;99.90;;;;;;5041293;28;20383;-46
2023/03/17 07:14:35;;;;;;;7.95;4.53;;;5.70;99.90;;;;;;5074434;28;20370;-45
2023/03/17 07:17:02;;;;;;;8.25;5.22;;;5.80;99.90;;;;;;5051272;28;20479;-46
2023/03/17 07:19:28;;;;;;;8.02;4.80;;;5.80;99.90;;;;;;5051473;28;20049;-45
2023/03/17 07:21:54;;;;;;;11.00;5.32;;;5.80;99.90;;;;;;5050292;28;20017;-45
2023/03/17 07:24:20;;;;;;;10.70;5.18;;;5.90;99.90;;;;;;5043968;28;20027;-45
2023/03/17 07:26:46;;;;;;;9.10;5.20;;;6.00;99.90;;;;;;5049482;28;20429;-45
2023/03/17 07:29:13;;;;;;;9.23;5.68;;;6.00;99.90;;;;;;5045437;28;20280;-45
2023/03/17 07:31:38;;;;;;;9.32;5.22;;;6.00;99.90;;;;;;5049265;28;20017;-46
2023/03/17 07:34:05;;;;;;;9.43;5.60;;;6.10;99.90;;;;;;5057931;28;20038;-45
2023/03/17 07:36:32;;;;;;;13.02;6.43;;;6.10;99.90;;;;;;5048210;28;20021;-45
2023/03/17 07:38:57;;;;;;;7.53;5.10;;;6.20;99.90;;;;;;5057976;28;20024;-45
2023/03/17 07:41:23;;;;;;;13.25;5.70;;;6.30;99.90;;;;;;5058162;28;20029;-44
2023/03/17 07:43:49;;;;;;;10.13;4.85;;;6.40;99.90;;;;;;5049925;28;20070;-45
2023/03/17 07:46:15;;;;;;;9.32;4.88;;;6.50;99.90;;;;;;5058749;28;20403;-45
2023/03/17 07:48:42;;;;;;;12.38;4.82;;;6.70;99.90;;;;;;5051395;28;20013;-45
2023/03/17 07:51:16;;;;;;;11.57;4.40;;;6.90;99.90;;;;;;5050920;28;20123;-45
2023/03/17 07:53:43;;;;;;;6.95;4.40;;;7.00;99.90;;;;;;5057231;28;20016;-44
2023/03/17 07:56:09;;;;;;;9.55;4.95;;;7.20;99.90;;;;;;5060359;28;20104;-45
2023/03/17 07:58:35;;;;;;;8.23;4.70;;;7.50;98.90;;;;;;5059604;28;20479;-45
2023/03/17 08:01:02;;;;;;;8.40;4.80;;;7.70;98.40;;;;;;5059827;28;20025;-45
2023/03/17 08:03:29;;;;;;;5.65;3.70;;;7.90;97.60;;;;;;5062791;28;20036;-45
2023/03/17 08:05:56;;;;;;;8.18;4.50;;;8.00;97.40;;;;;;5054113;28;20021;-46
2023/03/17 08:08:26;;;;;;;7.35;4.05;;;8.20;96.40;;;;;;5053923;28;20021;-45
2023/03/17 08:10:51;;;;;;;6.70;4.00;;;8.40;96.10;;;;;;5054814;28;20021;-45
2023/03/17 08:13:17;;;;;;;8.85;4.05;;;8.70;95.20;;;;;;5069674;28;20020;-45
2023/03/17 08:15:43;;;;;;;7.18;4.35;;;8.90;94.40;;;;;;5055706;28;20020;-44
2023/03/17 08:18:09;;;;;;;9.45;4.60;;;9.10;94.50;;;;;;5058606;28;20020;-45
2023/03/17 08:20:35;;;;;;;9.05;4.30;;;9.30;93.50;;;;;;5059171;28;20025;-45
2023/03/17 08:23:01;;;;;;;7.15;3.78;;;9.50;93.20;;;;;;5059232;28;20010;-46
2023/03/17 08:25:27;;;;;;;7.45;4.72;;;9.60;93.20;;;;;;5052885;28;20024;-45
2023/03/17 08:27:53;;;;;;;6.63;3.90;;;9.90;92.20;;;;;;5056028;28;20367;-44
2023/03/17 08:30:19;;;;;;;6.95;4.50;;;10.10;91.40;;;;;;5049917;28;20032;-45
2023/03/17 08:32:45;;;;;;;8.30;4.60;;;10.40;90.70;;;;;;5058387;28;20016;-46
2023/03/17 08:35:15;;;;;;;11.60;4.45;;;10.70;90.70;;;;;;5047855;28;20032;-45
2023/03/17 08:37:47;;;;;;;7.57;3.90;;;11.00;88.50;;;;;;5045774;28;20059;-45
2023/03/17 08:40:16;;;;;;;7.20;4.00;;;11.40;88.10;;;;;;5046152;28;20025;-46
2023/03/17 08:42:43;;;;;;;6.20;3.58;;;11.80;85.60;;;;;;5048635;28;20625;-47
2023/03/17 08:45:10;;;;;;;11.10;4.53;;;12.50;84.40;;;;;;5049836;28;20109;-45
2023/03/17 08:47:36;;;;;;;11.95;4.22;;;13.20;81.00;;;;;;5054859;28;20017;-44
2023/03/17 08:50:03;;;;;;;7.95;4.03;;;14.10;78.80;;;;;;5048528;28;20033;-43
2023/03/17 08:52:29;;;;;;;6.13;3.75;;;15.30;75.30;;;;;;5048658;28;20431;-45
2023/03/17 08:54:55;;;;;;;5.85;3.75;;;16.60;71.80;;;;;;5048887;28;20157;-44
2023/03/17 08:57:21;;;;;;;5.32;3.88;;;17.70;65.70;;;;;;5057692;28;20040;-43
2023/03/17 08:59:47;;;;;;;4.60;3.75;;;17.20;63.80;;;;;;5057970;28;20025;-43
2023/03/17 09:02:13;;;;;;;4.18;3.47;;;17.10;63.50;;;;;;5059548;28;20106;-43
2023/03/17 09:04:40;;;;;;;4.68;3.40;;;17.10;63.60;;;;;;5055754;28;20107;-44
2023/03/17 09:07:06;;;;;;;4.32;3.33;;;17.30;62.90;;;;;;5057808;28;20096;-44
2023/03/17 09:09:33;;;;;;;7.18;4.10;;;17.50;60.70;;;;;;5053628;28;20457;-44
2023/03/17 09:11:59;;;;;;;5.57;3.63;;;17.10;60.40;;;;;;5054687;28;20024;-44
2023/03/17 09:14:25;;;;;;;8.02;4.03;;;17.60;61.50;;;;;;5046609;28;20364;-44
2023/03/17 09:16:51;;;;;;;4.93;3.13;;;18.70;58.70;;;;;;5045675;28;20017;-47
2023/03/17 09:19:16;;;;;;;6.43;3.55;;;19.10;59.10;;;;;;5043676;28;20028;-46
2023/03/17 09:21:42;;;;;;;4.57;3.20;;;19.80;58.00;;;;;;5044396;28;20092;-43
2023/03/17 09:24:08;;;;;;;4.10;3.20;;;20.80;56.20;;;;;;5046453;28;20025;-44
2023/03/17 09:26:35;;;;;;;6.00;3.15;;;21.80;52.10;;;;;;5043869;28;20063;-44
2023/03/17 09:29:01;;;;;;;3.85;3.22;;;21.00;52.90;;;;;;5053735;28;20017;-46
2023/03/17 09:31:26;;;;;;;5.72;3.35;;;21.30;52.40;;;;;;5052770;28;20100;-44
2023/03/17 09:33:52;;;;;;;6.60;2.90;;;22.10;51.60;;;;;;5053716;28;20020;-44
2023/03/17 09:36:18;;;;;;;3.40;3.05;;;22.30;51.20;;;;;;5049125;28;20032;-48
2023/03/17 09:38:43;;;;;;;3.72;2.78;;;22.30;51.20;;;;;;5054825;28;20041;-44
2023/03/17 09:41:15;;;;;;;3.42;2.85;;;22.60;51.20;;;;;;5049382;28;20056;-46
2023/03/17 09:43:51;;;;;;;3.83;3.10;;;23.10;50.70;;;;;;5047593;28;20071;-45
2023/03/17 09:46:52;;;;;;;4.68;2.83;;;24.10;47.90;;;;;;5056772;28;20074;-44
2023/03/17 09:49:21;;;;;;;4.38;3.13;;;23.70;48.30;;;;;;5057419;28;20021;-45
2023/03/17 09:51:48;;;;;;;2.83;2.45;;;23.80;48.10;;;;;;5054758;28;20016;-44
2023/03/17 09:54:25;;;;;;;5.30;2.90;;;24.30;47.60;;;;;;5050659;28;20017;-44
2023/03/17 09:57:00;;;;;;;5.50;3.20;;;24.60;47.20;;;;;;5048756;28;20021;-45
2023/03/17 09:59:49;;;;;;;3.22;2.40;;;25.00;46.30;;;;;;5047332;28;20120;-47
2023/03/17 10:02:28;;;;;;;3.25;2.60;;;25.40;47.40;;;;;;5056853;28;20029;-44
2023/03/17 10:04:54;;;;;;;3.70;3.17;;;25.70;45.80;;;;;;5048238;28;20083;-45
2023/03/17 10:07:25;;;;;;;2.88;2.63;;;25.80;44.70;;;;;;5050484;28;20028;-45
2023/03/17 10:10:02;;;;;;;4.15;2.80;;;26.70;44.20;;;;;;5054245;28;20490;-45
2023/03/17 10:12:42;;;;;;;4.53;3.13;;;26.80;43.80;;;;;;5046750;28;20045;-45
2023/03/17 10:15:22;;;;;;;2.88;2.60;;;26.70;42.30;;;;;;5055080;28;20029;-45
2023/03/17 10:17:50;;;;;;;3.92;3.00;;;27.50;41.80;;;;;;5047366;28;20099;-45
2023/03/17 10:20:28;;;;;;;4.43;3.30;;;26.40;43.00;;;;;;5055379;28;20411;-45
2023/03/17 10:23:06;;;;;;;4.10;2.60;;;25.70;43.20;;;;;;5046897;28;20005;-44
2023/03/17 10:25:34;;;;;;;4.72;2.85;;;25.70;44.00;;;;;;5055620;28;20031;-44
2023/03/17 10:28:28;;;;;;;3.58;3.15;;;26.20;44.00;;;;;;5048511;28;20040;-45
2023/03/17 10:30:56;;;;;;;6.85;2.80;;;25.80;44.00;;;;;;5053545;28;20070;-45
2023/03/17 10:33:22;;;;;;;2.97;2.67;;;25.70;44.30;;;;;;5041327;28;20052;-45
2023/03/17 10:35:48;;;;;;;4.18;2.78;;;25.50;43.20;;;;;;5040477;28;20084;-44
2023/03/17 10:38:23;;;;;;;5.47;3.08;;;24.90;43.50;;;;;;5041601;28;20025;-48
2023/03/17 10:41:02;;;;;;;3.10;2.42;;;24.20;44.70;;;;;;5044502;28;20036;-44
2023/03/17 10:43:34;;;;;;;3.40;2.75;;;23.80;45.30;;;;;;5047805;28;20040;-44
2023/03/17 10:46:02;;;;;;;3.25;2.60;;;23.60;46.20;;;;;;5045500;28;20054;-44
2023/03/17 10:48:30;;;;;;;2.75;2.33;;;23.40;47.10;;;;;;5056132;28;20025;-44
2023/03/17 10:50:57;;;;;;;7.28;3.22;;;23.70;46.10;;;;;;5056691;28;20060;-44
2023/03/17 10:53:29;;;;;;;2.95;2.47;;;23.50;44.90;;;;;;5056471;28;20043;-44
2023/03/17 10:56:07;;;;;;;8.00;2.90;;;23.10;46.70;;;;;;5042556;28;20045;-44
2023/03/17 10:58:38;;;;;;;4.07;2.60;;;23.10;46.30;;;;;;5045393;28;20025;-44
2023/03/17 11:01:18;;;;;;;4.03;2.28;;;23.40;45.60;;;;;;5044097;28;20505;-45
2023/03/17 11:03:45;;;;;;;3.92;2.47;;;23.40;46.10;;;;;;5049677;28;20029;-45
2023/03/17 11:06:18;;;;;;;2.92;2.35;;;23.60;47.10;;;;;;5038787;28;20075;-45
2023/03/17 11:08:53;;;;;;;3.58;2.50;;;23.60;46.40;;;;;;5039860;28;20017;-44
2023/03/17 11:11:24;;;;;;;3.80;2.60;;;23.30;46.50;;;;;;5045839;28;20079;-45
2023/03/17 11:13:59;;;;;;;4.30;2.50;;;22.90;48.40;;;;;;5045677;28;20017;-45
2023/03/17 11:16:25;;;;;;;4.55;2.50;;;22.90;48.90;;;;;;5047839;28;20013;-45
2023/03/17 11:18:55;;;;;;;7.35;2.85;;;23.00;47.70;;;;;;5046550;28;20053;-46
2023/03/17 11:21:25;;;;;;;5.83;2.43;;;23.40;47.80;;;;;;5057289;28;20083;-45
2023/03/17 11:24:04;;;;;;;6.43;3.00;;;23.50;49.60;;;;;;5051442;28;20025;-45
2023/03/17 11:26:48;;;;;;;4.18;2.45;;;23.70;48.80;;;;;;5062921;28;20146;-47
2023/03/17 11:29:20;;;;;;;4.57;3.10;;;23.60;48.30;;;;;;5052660;28;20035;-48
2023/03/17 11:32:15;;;;;;;4.65;2.70;;;22.80;47.30;;;;;;5050146;28;20028;-44
2023/03/17 11:34:53;;;;;;;3.28;2.60;;;23.00;48.00;;;;;;5050156;28;20071;-44
2023/03/17 11:37:48;;;;;;;4.47;2.70;;;22.80;49.50;;;;;;5058441;28;20410;-47
2023/03/17 11:40:26;;;;;;;4.80;2.55;;;23.50;48.50;;;;;;5055873;28;20076;-46
2023/03/17 11:43:31;;;;;;;3.35;2.53;;;24.80;48.20;;;;;;5049612;28;20059;-45
2023/03/17 11:46:35;;;;;;;11.35;3.10;;;24.70;46.20;;;;;;5043494;28;20052;-45
2023/03/17 11:49:13;;;;;;;3.55;2.53;;;24.80;45.40;;;;;;5054019;28;20428;-44
2023/03/17 11:52:02;;;;;;;108.75;84.72;;;25.30;45.80;;;;;;5050266;28;20452;-44
2023/03/17 11:54:46;;;;;;;3.63;2.63;;;25.80;46.90;;;;;;5048937;28;20063;-45
2023/03/17 11:57:24;;;;;;;5.28;2.70;;;26.10;45.20;;;;;;5050884;28;20028;-47
2023/03/17 11:59:55;;;;;;;3.80;2.88;;;25.00;46.30;;;;;;5050551;28;20017;-44
2023/03/17 12:02:27;;;;;;;3.92;2.45;;;24.90;46.50;;;;;;5049216;28;20025;-44
2023/03/17 12:05:14;;;;;;;4.63;2.55;;;25.50;46.50;;;;;;5049941;28;20017;-43
2023/03/17 12:07:45;;;;;;;3.53;2.70;;;26.00;46.50;;;;;;5042895;28;20017;-43
2023/03/17 12:10:21;;;;;;;3.20;2.53;;;26.20;44.80;;;;;;5047677;28;20029;-44
2023/03/17 12:13:15;;;;;;;4.28;2.35;;;26.40;46.00;;;;;;5047705;28;20021;-44
2023/03/17 12:15:47;;;;;;;4.13;2.55;;;26.10;45.50;;;;;;5047322;28;20039;-46
2023/03/17 12:18:38;;;;;;;4.50;2.97;;;25.60;45.80;;;;;;5048872;28;20021;-46
2023/03/17 12:21:21;;;;;;;3.75;2.63;;;25.40;46.10;;;;;;5049855;28;20580;-47
2023/03/17 12:24:03;;;;;;;4.10;2.70;;;24.00;48.00;;;;;;5040993;28;20059;-44
2023/03/17 12:26:41;;;;;;;4.00;3.00;;;24.00;48.30;;;;;;5043194;28;20026;-44
2023/03/17 12:29:15;;;;;;;6.30;3.25;;;23.20;48.80;;;;;;5043594;28;20229;-44
2023/03/17 12:31:50;;;;;;;4.32;2.53;;;23.00;50.50;;;;;;5044542;28;20333;-45
2023/03/17 12:34:30;;;;;;;4.28;2.67;;;23.00;49.70;;;;;;5043723;28;20136;-46
2023/03/17 12:36:56;;;;;;;4.57;2.72;;;23.00;49.70;;;;;;5045506;28;20086;-44
2023/03/17 12:39:36;;;;;;;4.72;2.33;;;23.00;50.10;;;;;;5047461;28;20513;-45
2023/03/17 12:42:26;;;;;;;3.58;2.80;;;22.80;50.10;;;;;;5045558;28;20028;-46
2023/03/17 12:45:23;;;;;;;3.88;2.40;;;22.60;50.80;;;;;;5045431;28;20090;-44
2023/03/17 12:48:18;;;;;;;6.88;2.58;;;22.50;52.50;;;;;;5045412;28;20039;-44
2023/03/17 12:51:08;;;;;;;2.40;1.67;;;22.20;50.80;;;;;;5049821;28;20208;-46
2023/03/17 12:53:43;;;;;;;4.25;2.67;;;22.00;50.70;;;;;;5043665;28;20017;-44
2023/03/17 12:56:26;;;;;;;5.82;2.20;;;22.20;50.60;;;;;;5040276;28;20026;-44
2023/03/17 12:58:57;;;;;;;3.60;1.70;;;21.90;50.10;;;;;;5045444;28;20071;-45
2023/03/17 13:01:33;;;;;;;2.33;1.60;;;21.50;50.50;;;;;;5041907;28;20121;-44
2023/03/17 13:04:01;;;;;;;3.15;1.98;;;20.90;50.70;;;;;;5056032;28;20117;-46